Brownstown Township, MI (48193)

11:02 AM EDT on September 01, 2014 (GMT -0400)
N. Grosse Ile | Change Station
CLOSE
Current Station
Personal Weather Station
Location: Grosse Ile, MI
Elevation: 574 ft
Nearby Weather Stations

Elev 574 ft 42.18 °N, 83.14 °W | Updated 2 minutes ago

Overcast
Overcast
77.9 °F
Feels Like 80 °F
N
6.1
Wind Variable Wind from South
Gusts 13.1 mph

Today
High -- | Low -- °F
--% Chance of Precip.
Yesterday
High -- | Low -- °F
Precip. -- in
6:58 AM 8:06 PM
Waxing Crescent, 41% visible
Pressure 29.89 in
Visibility 10.0 miles
Clouds Overcast 1000 ft
Heat Index 80 °F
Dew Point 46 °F
Humidity 99%
Rainfall 0.00 in
Snow Depth Not available.
UV 2 out of 12
Pollen 8.00 out of 12
Ozone Good
PM2.5 Moderate
Flu Activity Not available.
METAR KONZ 011454Z AUTO 19014KT 10SM OVC010 24/22 A2989 RMK AO2

More Conditions Fewer Conditions

Pressure 29.89 in
Visibility 10.0 miles
Clouds Overcast 1000 ft
Heat Index 80 °F
Dew Point 46 °F
Humidity 99%
Rainfall 0.00 in
Snow Depth Not available.
UV 2 out of 12
Pollen 8.00 out of 12
Ozone Good
PM2.5 Moderate
Flu Activity Not available.
METAR KONZ 011454Z AUTO 19014KT 10SM OVC010 24/22 A2989 RMK AO2

More Conditions Fewer Conditions

Nowcast | as of 10:20 am EDT on September 1, 2014

At 1015 am National Weather Service Doppler radar showed an area of showers moving through Lenawee...Monroe...and southern parts of Washtenaw and Wayne counties. These showers are expected to strengthen as the move northeast at around 30 mph...with potential for lighting strikes...brief heavy downpours...and wind gusts to 30 mph. These storms will be near Royal Oak and the city of Detroit around 11 am.

×

10-Day Weather Forecast

Almanac

Astronomy

Sep. 01, 2014 Rise Set
Actual Time 6:58 AM EDT 8:06 PM EDT
Civil Twilight 6:29 AM EDT 8:35 PM EDT
Nautical Twilight 5:54 AM EDT 9:09 PM EDT
Astronomical Twilight 5:18 AM EDT 9:45 PM EDT
Moon 1:50 PM EDT 11:59 PM EDT
Length of Visible Light 14h 05m
Length of Day
13h 08m
Tomorrow will be 2m 44s shorter.
Waxing Crescent, 41% of the Moon is Illuminated
Today
Waxing Crescent
Sep 2
First Quarter
Sep 8
Full
Sep 15
Last Quarter
Sep 24
New

Today's Extremes

State Highs State Lows

Community

WunderPhotos

Upload Photos

1,749,256 photos uploaded!

Nearby

Air Quality

  Air Quality AQ Index Pollutant
Yesterday Good
PM10
Yesterday Good
OZONE
Current Moderate
PM2.5
Current Good
OZONE
Monday Good
OZONE
Monday Good
PM2.5
Tuesday Good
OZONE
Tuesday Good
PM2.5

Snow Depth

Station Depth Elevation
No new snow has been reported.

Earthquake Activity

City Distance Mag. Time & Date
No recent earthquake activity has been reported nearby.
Minimum magnitude displayed is 2.5.

Coastal Water Temperatures

Place Temperature
Marblehead, OH 73.0 °F

Nearby Weather Stations